createdAt,value
2023-02-22T00:00:12.485Z,512.80
2023-02-22T00:01:12.443Z,440.30
2023-02-22T00:02:12.527Z,441.90
2023-02-22T00:03:12.509Z,410.70
2023-02-22T00:04:12.530Z,485.70
2023-02-22T00:05:12.427Z,471.70
2023-02-22T00:06:12.529Z,507.90
2023-02-22T00:07:12.392Z,485.80
2023-02-22T00:08:12.539Z,423.50
2023-02-22T00:09:12.433Z,335.70
2023-02-22T00:10:12.369Z,438.20
2023-02-22T00:11:12.393Z,430.40
2023-02-22T00:12:12.362Z,376.40
2023-02-22T00:13:12.363Z,386.80
2023-02-22T00:14:12.341Z,371.10
2023-02-22T00:15:12.381Z,378.40
2023-02-22T00:16:12.363Z,367.40
2023-02-22T00:17:12.241Z,442.50
2023-02-22T00:18:12.355Z,428.90
2023-02-22T00:19:12.312Z,416.20
2023-02-22T00:20:12.761Z,440.80
2023-02-22T00:21:12.372Z,389.50
2023-02-22T00:22:12.256Z,349.40
2023-02-22T00:23:12.307Z,353.50
2023-02-22T00:24:12.249Z,376.00
2023-02-22T00:25:12.334Z,381.90
2023-02-22T00:26:12.293Z,399.70
2023-02-22T00:27:12.307Z,341.30
2023-02-22T00:28:12.202Z,395.20
2023-02-22T00:29:12.373Z,411.20
2023-02-22T00:30:12.264Z,447.40
2023-02-22T00:31:12.370Z,448.10
2023-02-22T00:32:12.279Z,453.00
2023-02-22T00:33:12.192Z,473.20
2023-02-22T00:34:12.154Z,433.60
2023-02-22T00:35:12.162Z,390.10
2023-02-22T00:36:12.197Z,427.80
2023-02-22T00:37:12.143Z,403.20
2023-02-22T00:38:12.109Z,370.00
2023-02-22T00:39:12.055Z,412.50
2023-02-22T00:40:12.072Z,355.90
2023-02-22T00:41:12.096Z,317.90
2023-02-22T00:42:12.083Z,298.40
2023-02-22T00:43:12.026Z,211.20
2023-02-22T00:44:12.097Z,186.30
2023-02-22T00:45:12.024Z,217.30
2023-02-22T00:46:12.021Z,325.00
2023-02-22T00:47:12.008Z,375.70
2023-02-22T00:48:12.078Z,377.40
2023-02-22T00:49:11.988Z,376.90
2023-02-22T00:50:12.017Z,356.30
2023-02-22T00:51:12.044Z,383.70
2023-02-22T00:52:12.028Z,325.30
2023-02-22T00:53:12.015Z,344.10
2023-02-22T00:54:12.173Z,354.00
2023-02-22T00:55:13.023Z,366.70
2023-02-22T00:56:11.998Z,396.30
2023-02-22T00:57:12.011Z,468.30
2023-02-22T00:58:12.101Z,435.10
2023-02-22T00:59:12.036Z,533.80
2023-02-22T01:00:12.086Z,456.00
2023-02-22T01:01:12.007Z,510.20
2023-02-22T01:02:12.033Z,495.40
2023-02-22T01:03:13.062Z,416.10
2023-02-22T01:04:11.998Z,431.20
2023-02-22T01:05:11.970Z,432.20
2023-02-22T01:06:11.967Z,449.60
2023-02-22T01:07:11.943Z,436.30
2023-02-22T01:08:11.995Z,514.90
2023-02-22T01:09:12.064Z,418.30
2023-02-22T01:10:12.051Z,490.90
2023-02-22T01:11:12.012Z,510.40
2023-02-22T01:12:12.007Z,617.90
2023-02-22T01:13:12.293Z,570.70
2023-02-22T01:14:11.940Z,571.60
2023-02-22T01:15:11.970Z,498.70
2023-02-22T01:16:11.933Z,497.00
2023-02-22T01:17:11.813Z,498.90
2023-02-22T01:18:11.875Z,469.50
2023-02-22T01:19:11.898Z,436.30
2023-02-22T01:20:11.947Z,426.90
2023-02-22T01:21:11.887Z,396.50
2023-02-22T01:22:11.874Z,339.70
2023-02-22T01:23:11.849Z,157.70
2023-02-22T01:24:11.824Z,139.80
2023-02-22T01:25:12.069Z,142.40
2023-02-22T01:26:11.842Z,143.10
2023-02-22T01:27:11.791Z,154.30
2023-02-22T01:28:14.897Z,156.10
2023-02-22T01:29:12.855Z,153.90
2023-02-22T01:30:11.924Z,170.00
2023-02-22T01:31:11.797Z,169.40
2023-02-22T01:32:11.934Z,142.20
2023-02-22T01:33:11.753Z,136.50
2023-02-22T01:34:11.840Z,138.60
2023-02-22T01:35:11.761Z,160.50
2023-02-22T01:36:11.853Z,159.90
2023-02-22T01:37:11.823Z,145.10
2023-02-22T01:38:11.936Z,142.30
2023-02-22T01:39:11.735Z,117.80
2023-02-22T01:40:11.831Z,146.20
2023-02-22T01:41:28.499Z,199.50
2023-02-22T01:42:12.650Z,232.60
2023-02-22T01:43:11.654Z,219.20
2023-02-22T01:44:11.712Z,172.90
2023-02-22T01:45:11.697Z,190.50
2023-02-22T01:46:11.660Z,217.50
2023-02-22T01:47:11.693Z,200.80
2023-02-22T01:48:11.623Z,232.50
2023-02-22T01:49:11.628Z,215.10
2023-02-22T01:50:11.609Z,203.60
2023-02-22T01:51:11.652Z,302.50
2023-02-22T01:52:11.549Z,240.20
2023-02-22T01:53:11.613Z,236.60
2023-02-22T01:54:11.624Z,262.50
2023-02-22T01:55:11.507Z,235.00
2023-02-22T01:56:11.577Z,219.10
2023-02-22T01:57:11.553Z,217.90
2023-02-22T01:58:11.572Z,183.70
2023-02-22T01:59:11.512Z,172.70
2023-02-22T02:00:11.480Z,188.60
2023-02-22T02:01:11.489Z,236.80
2023-02-22T02:02:11.501Z,179.90
2023-02-22T02:03:11.481Z,197.70
2023-02-22T02:04:11.722Z,183.20
2023-02-22T02:05:11.560Z,207.80
2023-02-22T02:06:11.451Z,215.40
2023-02-22T02:07:11.460Z,238.60
2023-02-22T02:08:11.431Z,221.70
2023-02-22T02:09:11.505Z,228.70
2023-02-22T02:10:11.501Z,191.30
2023-02-22T02:11:11.467Z,199.60
2023-02-22T02:12:11.479Z,215.70
2023-02-22T02:13:11.461Z,198.40
2023-02-22T02:14:11.457Z,210.90
2023-02-22T02:15:11.483Z,217.30
2023-02-22T02:16:11.453Z,226.70
2023-02-22T02:17:11.384Z,304.40
2023-02-22T02:18:11.483Z,354.60
2023-02-22T02:19:11.441Z,362.70
2023-02-22T02:20:11.480Z,394.40
2023-02-22T02:21:11.430Z,390.50
2023-02-22T02:22:11.487Z,395.40
2023-02-22T02:23:11.438Z,373.10
2023-02-22T02:24:11.477Z,359.80
2023-02-22T02:25:11.418Z,356.30
2023-02-22T02:26:11.742Z,376.00
2023-02-22T02:27:11.369Z,397.90
2023-02-22T02:28:11.412Z,389.70
2023-02-22T02:29:11.361Z,351.50
2023-02-22T02:30:11.412Z,377.30
2023-02-22T02:31:11.385Z,443.90
2023-02-22T02:32:11.520Z,469.00
2023-02-22T02:33:11.323Z,481.20
2023-02-22T02:34:11.299Z,500.50
2023-02-22T02:35:11.340Z,559.20
2023-02-22T02:36:11.294Z,542.90
2023-02-22T02:37:11.371Z,527.50
2023-02-22T02:38:11.304Z,545.90
2023-02-22T02:39:11.330Z,591.50
2023-02-22T02:40:11.466Z,556.90
2023-02-22T02:41:11.467Z,513.90
2023-02-22T02:42:11.334Z,525.40
2023-02-22T02:43:11.298Z,511.50
2023-02-22T02:44:11.299Z,507.50
2023-02-22T02:45:11.351Z,496.80
2023-02-22T02:46:11.253Z,494.30
2023-02-22T02:47:11.459Z,505.60
2023-02-22T02:48:11.267Z,507.50
2023-02-22T02:49:11.356Z,526.80
2023-02-22T02:50:11.251Z,544.90
2023-02-22T02:51:11.225Z,528.70
2023-02-22T02:52:11.200Z,506.80
2023-02-22T02:53:12.371Z,535.80
2023-02-22T02:54:11.225Z,589.50
2023-02-22T02:55:12.181Z,580.30
2023-02-22T02:56:11.175Z,587.10
2023-02-22T02:57:11.201Z,621.10
2023-02-22T02:58:11.247Z,598.50
2023-02-22T02:59:11.188Z,584.70
2023-02-22T03:00:11.170Z,593.50
2023-02-22T03:01:11.166Z,571.40
2023-02-22T03:02:11.117Z,488.40
2023-02-22T03:03:11.126Z,449.40
2023-02-22T03:04:11.168Z,422.80
2023-02-22T03:05:11.069Z,368.70
2023-02-22T03:06:11.022Z,391.80
2023-02-22T03:07:11.062Z,399.80
2023-02-22T03:08:11.178Z,417.50
2023-02-22T03:09:11.040Z,437.20
2023-02-22T03:10:11.068Z,446.70
2023-02-22T03:11:10.974Z,496.50
2023-02-22T03:12:11.029Z,482.30
2023-02-22T03:13:10.975Z,507.20
2023-02-22T03:14:11.079Z,444.40
2023-02-22T03:15:11.090Z,434.10
2023-02-22T03:16:11.043Z,391.70
2023-02-22T03:17:10.962Z,409.60
2023-02-22T03:18:11.050Z,337.90
2023-02-22T03:19:11.047Z,283.70
2023-02-22T03:20:41.940Z,369.50
2023-02-22T03:21:11.945Z,415.70
2023-02-22T03:22:10.978Z,459.80
2023-02-22T03:23:10.992Z,451.70
2023-02-22T03:24:10.976Z,545.00
2023-02-22T03:25:11.010Z,547.20
2023-02-22T03:26:11.053Z,530.10
2023-02-22T03:27:11.027Z,543.50
2023-02-22T03:28:11.010Z,610.50
2023-02-22T03:29:10.994Z,563.20
2023-02-22T03:30:10.957Z,540.30
2023-02-22T03:31:11.169Z,565.10
2023-02-22T03:32:10.925Z,478.40
2023-02-22T03:33:11.005Z,490.00
2023-02-22T03:34:10.951Z,533.00
2023-02-22T03:35:11.016Z,460.80
2023-02-22T03:36:10.877Z,556.50
2023-02-22T03:37:10.935Z,511.30
2023-02-22T03:38:10.910Z,565.60
2023-02-22T03:39:10.942Z,624.80
2023-02-22T03:40:10.908Z,595.40
2023-02-22T03:41:10.884Z,618.30
2023-02-22T03:42:10.897Z,622.50
2023-02-22T03:43:10.913Z,583.60
2023-02-22T03:44:10.881Z,571.40
2023-02-22T03:45:10.829Z,547.60
2023-02-22T03:46:10.912Z,465.60
2023-02-22T03:47:10.877Z,457.70
2023-02-22T03:48:10.930Z,379.00
2023-02-22T03:49:10.830Z,380.60
2023-02-22T03:50:10.812Z,409.30
2023-02-22T03:51:10.890Z,322.00
2023-02-22T03:52:10.842Z,323.20
2023-02-22T03:53:10.845Z,450.30
2023-02-22T03:54:10.849Z,420.40
2023-02-22T03:55:10.805Z,395.90
2023-02-22T03:56:10.886Z,539.50
2023-02-22T03:57:10.769Z,563.40
2023-02-22T03:58:10.965Z,589.70
2023-02-22T03:59:10.772Z,518.70
2023-02-22T04:00:10.762Z,485.60
2023-02-22T04:01:10.856Z,435.50
2023-02-22T04:02:10.758Z,342.30
2023-02-22T04:03:10.777Z,268.50
2023-02-22T04:04:10.741Z,313.60
2023-02-22T04:05:10.796Z,264.40
2023-02-22T04:06:10.732Z,240.80
2023-02-22T04:07:10.760Z,246.30
2023-02-22T04:08:10.716Z,266.30
2023-02-22T04:09:10.717Z,252.00
2023-02-22T04:10:10.659Z,246.40
2023-02-22T04:11:10.684Z,231.20
2023-02-22T04:12:10.661Z,247.60
2023-02-22T04:13:10.731Z,232.80
2023-02-22T04:14:10.706Z,229.70
2023-02-22T04:15:10.767Z,289.50
2023-02-22T04:16:10.765Z,250.60
2023-02-22T04:17:10.552Z,296.70
2023-02-22T04:18:10.620Z,302.40
2023-02-22T04:19:10.696Z,279.80
2023-02-22T04:20:10.688Z,277.90
2023-02-22T04:21:10.765Z,308.10
2023-02-22T04:22:10.617Z,290.20
2023-02-22T04:23:10.776Z,309.60
2023-02-22T04:24:11.432Z,406.20
2023-02-22T04:25:10.555Z,556.80
2023-02-22T04:26:10.566Z,479.40
2023-02-22T04:27:10.506Z,452.30
2023-02-22T04:28:31.626Z,454.10
2023-02-22T04:29:10.489Z,493.10
2023-02-22T04:30:10.580Z,569.50
2023-02-22T04:31:11.029Z,573.60
2023-02-22T04:32:10.503Z,438.50
2023-02-22T04:33:10.572Z,422.70
2023-02-22T04:34:10.416Z,473.50
2023-02-22T04:35:10.512Z,448.30
2023-02-22T04:36:10.419Z,455.70
2023-02-22T04:37:10.639Z,456.10
2023-02-22T04:38:10.566Z,489.80
2023-02-22T04:39:10.449Z,453.30
2023-02-22T04:40:10.477Z,477.30
2023-02-22T04:41:10.442Z,474.40
2023-02-22T04:42:10.413Z,563.20
2023-02-22T04:43:10.531Z,573.30
2023-02-22T04:44:10.352Z,583.10
2023-02-22T04:45:10.450Z,539.50
2023-02-22T04:46:10.472Z,578.30
2023-02-22T04:47:10.387Z,519.90
2023-02-22T04:48:10.492Z,541.40
2023-02-22T04:49:10.441Z,542.20
2023-02-22T04:50:10.338Z,519.30
2023-02-22T04:51:10.445Z,463.80
2023-02-22T04:52:10.448Z,432.50
2023-02-22T04:53:10.385Z,482.30
2023-02-22T04:54:10.475Z,500.30
2023-02-22T04:55:10.425Z,499.00
2023-02-22T04:56:10.309Z,504.10
2023-02-22T04:57:10.320Z,538.40
2023-02-22T04:58:10.314Z,541.10
2023-02-22T04:59:10.347Z,484.70
2023-02-22T05:00:10.331Z,527.70
2023-02-22T05:01:10.449Z,483.20
2023-02-22T05:02:10.244Z,570.60
2023-02-22T05:03:10.390Z,518.60
2023-02-22T05:04:10.448Z,459.70
2023-02-22T05:05:10.270Z,442.80
2023-02-22T05:06:10.316Z,452.90
2023-02-22T05:07:10.387Z,490.80
2023-02-22T05:08:10.238Z,482.70
2023-02-22T05:09:11.475Z,471.40
2023-02-22T05:10:10.327Z,439.90
2023-02-22T05:11:10.218Z,490.80
2023-02-22T05:12:10.306Z,420.10
2023-02-22T05:13:10.300Z,450.50
2023-02-22T05:14:10.285Z,503.20
2023-02-22T05:15:10.396Z,508.00
2023-02-22T05:16:10.300Z,493.70
2023-02-22T05:17:10.230Z,465.00
2023-02-22T05:18:10.316Z,450.60
2023-02-22T05:19:10.288Z,529.40
2023-02-22T05:20:11.163Z,498.30
2023-02-22T05:21:10.213Z,536.20
2023-02-22T05:22:10.234Z,621.40
2023-02-22T05:23:10.119Z,492.40
2023-02-22T05:24:10.333Z,434.90
2023-02-22T05:25:10.346Z,473.30
2023-02-22T05:26:11.613Z,484.30
2023-02-22T05:27:11.186Z,452.40
2023-02-22T05:28:10.290Z,461.60
2023-02-22T05:29:10.084Z,435.70
2023-02-22T05:30:10.327Z,403.20
2023-02-22T05:31:10.245Z,380.20
2023-02-22T05:32:10.146Z,373.30
2023-02-22T05:33:10.158Z,414.20
2023-02-22T05:34:10.155Z,399.00
2023-02-22T05:35:10.077Z,375.20
2023-02-22T05:36:10.442Z,329.60
2023-02-22T05:37:10.191Z,295.80
2023-02-22T05:38:10.086Z,332.50
2023-02-22T05:39:10.134Z,321.10
2023-02-22T05:40:10.122Z,289.30
2023-02-22T05:41:10.126Z,285.00
2023-02-22T05:42:10.172Z,281.50
2023-02-22T05:43:11.130Z,274.20
2023-02-22T05:44:10.097Z,313.70
2023-02-22T05:45:10.036Z,389.20
2023-02-22T05:46:10.194Z,414.10
2023-02-22T05:47:10.109Z,511.30
2023-02-22T05:48:10.031Z,543.60
2023-02-22T05:49:09.997Z,544.30
2023-02-22T05:50:09.994Z,473.10
2023-02-22T05:51:10.004Z,577.00
2023-02-22T05:52:09.979Z,558.90
2023-02-22T05:53:10.038Z,587.70
2023-02-22T05:54:09.976Z,633.90
2023-02-22T05:55:09.916Z,564.90
2023-02-22T05:56:10.991Z,566.40
2023-02-22T05:57:09.937Z,533.00
2023-02-22T05:58:09.998Z,544.80
2023-02-22T05:59:09.990Z,539.90
2023-02-22T06:00:09.904Z,527.90
2023-02-22T06:01:09.919Z,478.00
2023-02-22T06:02:09.944Z,502.70
2023-02-22T06:03:09.868Z,570.20
2023-02-22T06:04:09.996Z,623.00
2023-02-22T06:05:09.952Z,507.30
2023-02-22T06:06:09.943Z,523.70
2023-02-22T06:07:09.967Z,451.00
2023-02-22T06:08:09.980Z,477.90
2023-02-22T06:09:09.979Z,522.40
2023-02-22T06:10:10.016Z,526.60
2023-02-22T06:11:09.915Z,503.70
2023-02-22T06:12:09.941Z,473.00
2023-02-22T06:13:09.916Z,459.00
2023-02-22T06:14:09.947Z,529.20
2023-02-22T06:15:09.892Z,518.20
2023-02-22T06:16:10.044Z,541.40
2023-02-22T06:17:09.723Z,499.70
2023-02-22T06:18:09.883Z,522.60
2023-02-22T06:19:09.834Z,514.70
2023-02-22T06:20:09.835Z,565.70
2023-02-22T06:21:09.843Z,615.80
2023-02-22T06:22:09.786Z,493.50
2023-02-22T06:23:09.802Z,495.70
2023-02-22T06:24:09.770Z,465.90
2023-02-22T06:25:09.826Z,419.40
2023-02-22T06:26:09.777Z,483.40
2023-02-22T06:27:09.797Z,542.80
2023-02-22T06:28:09.792Z,447.30
2023-02-22T06:29:09.690Z,414.70
2023-02-22T06:30:11.766Z,422.80
2023-02-22T06:31:09.839Z,399.70
2023-02-22T06:32:09.737Z,363.00
2023-02-22T06:33:09.886Z,400.30
2023-02-22T06:34:09.715Z,379.10
2023-02-22T06:35:09.700Z,392.60
2023-02-22T06:36:09.896Z,401.70
2023-02-22T06:37:09.880Z,439.20
2023-02-22T06:38:09.638Z,432.00
2023-02-22T06:39:09.882Z,446.50
2023-02-22T06:40:09.710Z,493.80
2023-02-22T06:41:09.602Z,511.70
2023-02-22T06:42:09.900Z,534.30
2023-02-22T06:43:09.824Z,535.00
2023-02-22T06:44:22.973Z,490.50
2023-02-22T06:45:09.615Z,495.30
2023-02-22T06:46:09.639Z,520.30
2023-02-22T06:47:09.687Z,506.70
2023-02-22T06:48:09.654Z,521.30
2023-02-22T06:49:09.589Z,516.90
2023-02-22T06:50:09.558Z,505.20
2023-02-22T06:51:09.589Z,571.40
2023-02-22T06:52:09.540Z,571.80
2023-02-22T06:53:09.625Z,491.40
2023-02-22T06:54:09.515Z,524.50
2023-02-22T06:55:09.564Z,531.30
2023-02-22T06:56:09.522Z,562.20
2023-02-22T06:57:09.525Z,575.40
2023-02-22T06:58:09.579Z,534.00
2023-02-22T06:59:09.476Z,520.70
2023-02-22T07:00:09.636Z,558.00
2023-02-22T07:01:09.642Z,442.30
2023-02-22T07:02:09.442Z,487.30
2023-02-22T07:03:09.571Z,534.90
2023-02-22T07:04:09.614Z,452.90
2023-02-22T07:05:09.438Z,422.10
2023-02-22T07:06:09.476Z,487.50
2023-02-22T07:07:09.525Z,496.60
2023-02-22T07:08:09.573Z,527.90
2023-02-22T07:09:09.598Z,530.50
2023-02-22T07:10:09.496Z,455.70
2023-02-22T07:11:09.463Z,404.50
2023-02-22T07:12:09.625Z,370.10
2023-02-22T07:13:09.509Z,383.40
2023-02-22T07:14:09.494Z,406.20
2023-02-22T07:15:09.538Z,390.30
2023-02-22T07:16:09.473Z,417.90
2023-02-22T07:17:09.446Z,520.70
2023-02-22T07:18:09.571Z,538.80
2023-02-22T07:19:09.578Z,406.40
2023-02-22T07:20:09.473Z,440.70
2023-02-22T07:21:09.500Z,467.80
2023-02-22T07:22:09.412Z,413.50
2023-02-22T07:23:09.564Z,479.30
2023-02-22T07:24:09.454Z,387.90
2023-02-22T07:25:09.385Z,389.80
2023-02-22T07:26:09.494Z,434.50
2023-02-22T07:27:09.503Z,468.40
2023-02-22T07:28:09.383Z,464.80
2023-02-22T07:29:09.381Z,462.70
2023-02-22T07:30:09.440Z,498.00
2023-02-22T07:31:09.509Z,530.60
2023-02-22T07:32:09.566Z,506.90
2023-02-22T07:33:09.378Z,569.40
2023-02-22T07:34:09.398Z,605.20
2023-02-22T07:35:09.327Z,551.70
2023-02-22T07:36:09.505Z,574.80
2023-02-22T07:37:09.369Z,583.90
2023-02-22T07:38:09.339Z,502.00
2023-02-22T07:39:09.324Z,441.00
2023-02-22T07:40:09.325Z,589.00
2023-02-22T07:41:09.328Z,583.50
2023-02-22T07:42:09.683Z,664.00
2023-02-22T07:43:09.169Z,599.50
2023-02-22T07:44:09.303Z,575.20
2023-02-22T07:45:09.189Z,529.50
2023-02-22T07:46:09.226Z,579.60
2023-02-22T07:47:09.189Z,479.80
2023-02-22T07:48:09.240Z,648.50
2023-02-22T07:49:09.145Z,558.20
2023-02-22T07:50:09.219Z,576.10
2023-02-22T07:51:09.162Z,637.00
2023-02-22T07:52:09.113Z,588.30
2023-02-22T07:53:09.191Z,577.60
2023-02-22T07:54:09.160Z,512.00
2023-02-22T07:55:09.137Z,472.30
2023-02-22T07:56:09.115Z,500.30
2023-02-22T07:57:09.140Z,481.10
2023-02-22T07:58:09.197Z,442.80
2023-02-22T07:59:09.209Z,532.20
2023-02-22T08:00:09.171Z,523.70
2023-02-22T08:01:09.221Z,540.80
2023-02-22T08:02:09.237Z,588.50
2023-02-22T08:03:09.179Z,625.40
2023-02-22T08:04:09.237Z,679.30
2023-02-22T08:05:09.191Z,640.60
2023-02-22T08:06:09.250Z,523.00
2023-02-22T08:07:09.220Z,484.70
2023-02-22T08:08:09.097Z,585.80
2023-02-22T08:09:09.249Z,473.80
2023-02-22T08:10:09.118Z,591.50
2023-02-22T08:11:09.235Z,616.40
2023-02-22T08:12:09.129Z,644.10
2023-02-22T08:13:09.123Z,604.20
2023-02-22T08:14:09.051Z,731.60
2023-02-22T08:15:09.108Z,658.70
2023-02-22T08:16:09.120Z,641.10
2023-02-22T08:17:09.166Z,734.20
2023-02-22T08:18:10.029Z,742.40
2023-02-22T08:19:09.079Z,706.50
2023-02-22T08:20:09.150Z,630.20
2023-02-22T08:21:08.907Z,706.30
2023-02-22T08:22:09.134Z,651.50
2023-02-22T08:23:08.943Z,637.40
2023-02-22T08:24:08.981Z,576.20
2023-02-22T08:25:09.007Z,652.50
2023-02-22T08:26:09.074Z,640.10
2023-02-22T08:27:09.014Z,586.00
2023-02-22T08:28:09.026Z,641.30
2023-02-22T08:29:08.971Z,600.50
2023-02-22T08:30:09.001Z,631.20
2023-02-22T08:31:08.914Z,616.40
2023-02-22T08:32:09.103Z,647.50
2023-02-22T08:33:08.959Z,610.90
2023-02-22T08:34:08.937Z,640.70
2023-02-22T08:35:08.872Z,597.20
2023-02-22T08:36:08.993Z,623.90
2023-02-22T08:37:09.000Z,616.10
2023-02-22T08:38:08.842Z,533.60
2023-02-22T08:39:08.923Z,565.20
2023-02-22T08:40:08.941Z,564.70
2023-02-22T08:41:08.968Z,488.30
2023-02-22T08:42:08.880Z,477.40
2023-02-22T08:43:08.848Z,353.20
2023-02-22T08:44:08.752Z,353.30
2023-02-22T08:45:08.719Z,265.80
2023-02-22T08:46:09.042Z,275.80
2023-02-22T08:47:08.807Z,215.50
2023-02-22T08:48:09.021Z,205.70
2023-02-22T08:49:08.795Z,218.50
2023-02-22T08:50:08.802Z,230.70
2023-02-22T08:51:08.885Z,259.80
2023-02-22T08:52:08.753Z,321.00
2023-02-22T08:53:08.828Z,244.40
2023-02-22T08:54:08.719Z,212.00
2023-02-22T08:55:08.763Z,283.30
2023-02-22T08:56:08.791Z,414.50
2023-02-22T08:57:08.709Z,356.80
2023-02-22T08:58:08.709Z,343.90
2023-02-22T08:59:08.778Z,319.80
2023-02-22T09:00:08.648Z,320.20
2023-02-22T09:01:08.747Z,375.80
2023-02-22T09:02:08.731Z,336.20
2023-02-22T09:03:08.649Z,327.30
2023-02-22T09:04:08.748Z,428.10
2023-02-22T09:05:08.743Z,389.10
2023-02-22T09:06:08.721Z,363.20
2023-02-22T09:07:08.692Z,338.60
2023-02-22T09:08:08.753Z,354.00
2023-02-22T09:09:08.607Z,275.90
2023-02-22T09:10:08.735Z,281.20
2023-02-22T09:11:08.659Z,236.80
2023-02-22T09:12:08.607Z,271.20
2023-02-22T09:13:08.648Z,285.90
2023-02-22T09:14:08.729Z,246.80
2023-02-22T09:15:08.636Z,243.20
2023-02-22T09:16:08.753Z,321.80
2023-02-22T09:17:08.587Z,360.70
2023-02-22T09:18:08.563Z,309.50
2023-02-22T09:19:08.547Z,351.90
2023-02-22T09:20:08.606Z,398.30
2023-02-22T09:21:08.555Z,376.90
2023-02-22T09:22:08.655Z,319.40
2023-02-22T09:23:08.677Z,324.90
2023-02-22T09:24:09.586Z,293.60
2023-02-22T09:25:16.725Z,340.00
2023-02-22T09:26:10.756Z,380.20
2023-02-22T09:27:08.466Z,346.50
2023-02-22T09:28:08.607Z,508.10
2023-02-22T09:29:08.565Z,558.70
2023-02-22T09:30:08.581Z,557.20
2023-02-22T09:31:08.600Z,565.50
2023-02-22T09:32:08.652Z,576.60
2023-02-22T09:33:08.470Z,574.50
2023-02-22T09:34:08.501Z,590.10
2023-02-22T09:35:08.428Z,429.00
2023-02-22T09:36:08.406Z,348.20
2023-02-22T09:37:08.451Z,305.00
2023-02-22T09:38:08.526Z,333.50
2023-02-22T09:39:08.423Z,341.70
2023-02-22T09:40:08.316Z,326.50
2023-02-22T09:41:08.336Z,322.30
2023-02-22T09:42:08.336Z,368.50
2023-02-22T09:43:08.356Z,371.50
2023-02-22T09:44:08.362Z,375.90
2023-02-22T09:45:08.299Z,363.80
2023-02-22T09:46:08.448Z,336.30
2023-02-22T09:47:08.349Z,327.00
2023-02-22T09:48:21.197Z,373.10
2023-02-22T09:49:10.357Z,335.20
2023-02-22T09:50:08.380Z,336.50
2023-02-22T09:51:08.446Z,360.20
2023-02-22T09:52:08.373Z,352.60
2023-02-22T09:53:08.450Z,373.00
2023-02-22T09:54:08.301Z,355.70
2023-02-22T09:55:08.407Z,388.40
2023-02-22T09:56:08.390Z,423.30
2023-02-22T09:57:08.308Z,405.10
2023-02-22T09:58:08.385Z,345.30
2023-02-22T09:59:08.366Z,393.70
2023-02-22T10:00:08.207Z,368.20
2023-02-22T10:01:08.289Z,333.10
2023-02-22T10:02:08.454Z,323.10
2023-02-22T10:03:08.214Z,375.60
2023-02-22T10:04:08.385Z,491.60
2023-02-22T10:05:08.280Z,353.00
2023-02-22T10:06:08.195Z,279.80
2023-02-22T10:07:08.344Z,354.60
2023-02-22T10:08:08.302Z,246.70
2023-02-22T10:09:08.189Z,193.20
2023-02-22T10:10:08.367Z,183.10
2023-02-22T10:11:08.206Z,161.00
2023-02-22T10:12:08.130Z,153.90
2023-02-22T10:13:09.289Z,174.40
2023-02-22T10:14:08.194Z,185.10
2023-02-22T10:15:08.217Z,174.70
2023-02-22T10:16:09.178Z,176.40
2023-02-22T10:17:08.208Z,179.90
2023-02-22T10:18:08.113Z,173.90
2023-02-22T10:19:08.189Z,187.70
2023-02-22T10:20:08.165Z,233.40
2023-02-22T10:21:08.131Z,237.70
2023-02-22T10:22:08.121Z,225.30
2023-02-22T10:23:08.224Z,255.20
2023-02-22T10:24:08.106Z,270.50
2023-02-22T10:25:09.660Z,206.80
2023-02-22T10:26:09.225Z,243.80
2023-02-22T10:27:08.087Z,255.60
2023-02-22T10:28:08.048Z,252.90
2023-02-22T10:29:08.046Z,218.30
2023-02-22T10:30:23.372Z,232.10
2023-02-22T10:31:10.203Z,208.10
2023-02-22T10:32:08.057Z,234.80
2023-02-22T10:33:07.932Z,229.80
2023-02-22T10:34:08.001Z,302.80
2023-02-22T10:35:07.988Z,352.10
2023-02-22T10:36:07.999Z,335.70
2023-02-22T10:37:08.020Z,258.20
2023-02-22T10:38:08.033Z,284.90
2023-02-22T10:39:07.969Z,246.30
2023-02-22T10:40:07.963Z,235.80
2023-02-22T10:41:07.931Z,232.80
2023-02-22T10:42:12.487Z,271.40
2023-02-22T10:43:09.044Z,452.30
2023-02-22T10:44:07.914Z,398.70
2023-02-22T10:45:08.071Z,404.40
2023-02-22T10:46:08.186Z,388.80
2023-02-22T10:47:08.125Z,364.60
2023-02-22T10:48:08.115Z,387.20
2023-02-22T10:49:07.981Z,304.90
2023-02-22T10:50:08.061Z,281.10
2023-02-22T10:51:07.926Z,296.80
2023-02-22T10:52:07.953Z,267.00
2023-02-22T10:53:08.209Z,296.90
2023-02-22T10:54:07.841Z,316.70
2023-02-22T10:55:15.269Z,352.60
2023-02-22T10:56:10.013Z,378.00
2023-02-22T10:57:07.821Z,391.50
2023-02-22T10:58:07.946Z,531.10
2023-02-22T10:59:07.980Z,497.50
2023-02-22T11:00:07.896Z,519.60
2023-02-22T11:01:07.904Z,489.20
2023-02-22T11:02:07.817Z,495.40
2023-02-22T11:03:07.736Z,517.80
2023-02-22T11:04:07.857Z,514.80
2023-02-22T11:05:07.821Z,528.80
2023-02-22T11:06:08.294Z,547.00
2023-02-22T11:07:07.874Z,485.10
2023-02-22T11:08:07.813Z,437.70
2023-02-22T11:09:07.690Z,496.00
2023-02-22T11:10:07.981Z,496.90
2023-02-22T11:11:07.953Z,557.20
2023-02-22T11:12:07.945Z,578.60
2023-02-22T11:13:07.892Z,599.10
2023-02-22T11:14:07.816Z,631.90
2023-02-22T11:15:07.816Z,641.00
2023-02-22T11:16:07.776Z,631.10
2023-02-22T11:17:07.813Z,649.50
2023-02-22T11:18:08.907Z,517.70
2023-02-22T11:19:09.041Z,539.90
2023-02-22T11:20:07.918Z,577.80
2023-02-22T11:21:07.817Z,672.40
2023-02-22T11:22:07.770Z,589.60
2023-02-22T11:23:07.714Z,653.50
2023-02-22T11:24:48.662Z,753.70
2023-02-22T11:25:08.627Z,799.20
2023-02-22T11:26:07.639Z,827.10
2023-02-22T11:27:07.665Z,712.40
2023-02-22T11:28:07.632Z,725.40
2023-02-22T11:29:07.591Z,853.80
2023-02-22T11:30:07.633Z,806.50
2023-02-22T11:31:07.674Z,752.10
2023-02-22T11:32:07.683Z,717.00
2023-02-22T11:33:07.534Z,709.90
2023-02-22T11:34:07.579Z,673.30
2023-02-22T11:35:09.455Z,762.60
2023-02-22T11:36:08.533Z,791.10
2023-02-22T11:37:14.236Z,811.50
2023-02-22T11:38:08.531Z,817.00
2023-02-22T11:39:07.595Z,627.60
2023-02-22T11:40:07.642Z,667.50
2023-02-22T11:41:07.577Z,523.20
2023-02-22T11:42:07.626Z,523.50
2023-02-22T11:43:07.874Z,513.20
2023-02-22T11:44:07.602Z,614.20
2023-02-22T11:45:07.540Z,677.50
2023-02-22T11:46:07.621Z,595.00
2023-02-22T11:47:07.651Z,576.10
2023-02-22T11:48:07.794Z,545.60
2023-02-22T11:49:07.582Z,527.50
2023-02-22T11:50:07.482Z,492.80
2023-02-22T11:51:07.640Z,405.20
2023-02-22T11:52:07.509Z,512.80
2023-02-22T11:53:07.656Z,450.60
2023-02-22T11:54:08.029Z,656.00
2023-02-22T11:55:07.629Z,748.10
2023-02-22T11:56:07.809Z,707.70
2023-02-22T11:57:07.735Z,765.20
2023-02-22T11:58:07.693Z,513.60
2023-02-22T11:59:07.540Z,584.60
2023-02-22T12:00:07.517Z,750.50
2023-02-22T12:01:07.571Z,760.60
2023-02-22T12:02:07.497Z,630.10
2023-02-22T12:03:07.500Z,647.80
2023-02-22T12:04:07.439Z,826.50
2023-02-22T12:05:08.053Z,804.20
2023-02-22T12:06:07.487Z,880.60
2023-02-22T12:07:07.381Z,871.60
2023-02-22T12:08:18.981Z,796.90
2023-02-22T12:09:09.372Z,837.60
2023-02-22T12:10:07.891Z,889.00
2023-02-22T12:11:07.404Z,742.10
2023-02-22T12:12:07.249Z,819.70
2023-02-22T12:13:07.345Z,860.90
2023-02-22T12:14:07.285Z,836.70
2023-02-22T12:15:07.361Z,823.20
2023-02-22T12:16:07.376Z,786.50
2023-02-22T12:17:07.305Z,801.80
2023-02-22T12:18:07.252Z,803.60
2023-02-22T12:19:07.291Z,843.90
2023-02-22T12:20:07.385Z,887.90
2023-02-22T12:21:07.341Z,869.70
2023-02-22T12:22:07.276Z,834.60
2023-02-22T12:23:07.364Z,780.70
2023-02-22T12:24:07.682Z,867.50
2023-02-22T12:25:10.413Z,841.10
2023-02-22T12:26:10.789Z,806.80
2023-02-22T12:27:07.844Z,819.30
2023-02-22T12:28:15.618Z,775.70